createdAt,value
2018-04-10T00:00:26.634Z,22.10
2018-04-10T00:01:29.116Z,22.70
2018-04-10T00:02:32.693Z,22.02
2018-04-10T00:03:35.167Z,21.67
2018-04-10T00:04:39.156Z,22.10
2018-04-10T00:05:42.391Z,23.08
2018-04-10T00:06:44.891Z,21.60
2018-04-10T00:07:47.371Z,23.10
2018-04-10T00:08:50.611Z,21.58
2018-04-10T00:09:53.089Z,21.75
2018-04-10T00:10:55.563Z,22.40
2018-04-10T00:11:58.032Z,22.50
2018-04-10T00:13:00.538Z,22.52
2018-04-10T00:14:03.775Z,22.50
2018-04-10T00:15:06.247Z,24.48
2018-04-10T00:16:08.719Z,23.02
2018-04-10T00:17:11.183Z,22.35
2018-04-10T00:18:13.727Z,22.00
2018-04-10T00:19:16.196Z,23.27
2018-04-10T00:20:18.723Z,21.90
2018-04-10T00:21:21.215Z,21.15
2018-04-10T00:22:23.688Z,22.50
2018-04-10T00:23:26.171Z,22.13
2018-04-10T00:24:28.639Z,23.58
2018-04-10T00:25:31.115Z,22.87
2018-04-10T00:26:34.347Z,22.48
2018-04-10T00:27:36.819Z,23.08
2018-04-10T00:28:39.695Z,21.48
2018-04-10T00:29:42.179Z,22.27
2018-04-10T00:30:44.644Z,22.73
2018-04-10T00:31:47.115Z,24.02
2018-04-10T00:32:49.583Z,22.45
2018-04-10T00:33:52.071Z,22.80
2018-04-10T00:34:55.312Z,21.90
2018-04-10T00:35:57.798Z,22.13
2018-04-10T00:37:00.263Z,21.17
2018-04-10T00:38:04.237Z,22.02
2018-04-10T00:39:06.743Z,21.67
2018-04-10T00:40:09.987Z,21.35
2018-04-10T00:41:12.451Z,21.25
2018-04-10T00:42:14.927Z,22.10
2018-04-10T00:43:17.395Z,20.33
2018-04-10T00:44:19.885Z,21.52
2018-04-10T00:45:23.173Z,21.02
2018-04-10T00:46:26.407Z,20.50
2018-04-10T00:47:28.879Z,21.95
2018-04-10T00:48:31.381Z,21.45
2018-04-10T00:49:34.919Z,21.60
2018-04-10T00:50:37.453Z,21.90
2018-04-10T00:51:39.927Z,21.92
2018-04-10T00:52:42.430Z,20.25
2018-04-10T00:53:44.911Z,21.65
2018-04-10T00:54:48.923Z,21.90
2018-04-10T00:55:52.205Z,20.00
2018-04-10T00:56:55.435Z,20.55
2018-04-10T00:57:57.903Z,21.08
2018-04-10T00:59:00.375Z,22.05
2018-04-10T01:00:02.867Z,19.70
2018-04-10T01:01:05.335Z,19.55
2018-04-10T01:02:07.827Z,20.05
2018-04-10T01:03:11.068Z,19.48
2018-04-10T01:04:13.543Z,20.20
2018-04-10T01:05:16.023Z,19.60
2018-04-10T01:06:19.257Z,19.33
2018-04-10T01:07:21.727Z,19.87
2018-04-10T01:08:24.194Z,20.12
2018-04-10T01:09:26.674Z,19.52
2018-04-10T01:10:29.422Z,19.98
2018-04-10T01:11:31.899Z,19.25
2018-04-10T01:12:34.371Z,19.40
2018-04-10T01:13:36.874Z,19.80
2018-04-10T01:14:40.106Z,19.02
2018-04-10T01:15:42.599Z,20.33
2018-04-10T01:16:45.835Z,19.52
2018-04-10T01:17:48.359Z,18.85
2018-04-10T01:18:51.592Z,18.48
2018-04-10T01:19:54.056Z,20.00
2018-04-10T01:20:56.579Z,19.60
2018-04-10T01:21:59.819Z,18.77
2018-04-10T01:23:02.303Z,19.37
2018-04-10T01:24:05.571Z,19.33
2018-04-10T01:25:08.040Z,19.15
2018-04-10T01:26:10.547Z,18.42
2018-04-10T01:27:13.016Z,18.23
2018-04-10T01:28:15.486Z,18.90
2018-04-10T01:29:17.953Z,18.85
2018-04-10T01:30:20.425Z,19.23
2018-04-10T01:31:22.917Z,18.65
2018-04-10T01:32:25.393Z,19.35
2018-04-10T01:33:27.867Z,19.42
2018-04-10T01:34:30.335Z,18.75
2018-04-10T01:35:33.571Z,18.92
2018-04-10T01:36:36.060Z,18.65
2018-04-10T01:37:38.535Z,19.50
2018-04-10T01:38:41.011Z,19.10
2018-04-10T01:39:44.275Z,18.30
2018-04-10T01:40:46.749Z,19.37
2018-04-10T01:41:49.260Z,18.87
2018-04-10T01:42:51.731Z,19.40
2018-04-10T01:43:54.203Z,19.20
2018-04-10T01:44:56.679Z,20.17
2018-04-10T01:45:59.147Z,18.95
2018-04-10T01:47:01.631Z,19.10
2018-04-10T01:48:04.104Z,18.70
2018-04-10T01:49:06.575Z,18.83
2018-04-10T01:50:10.552Z,19.35
2018-04-10T01:51:13.052Z,19.50
2018-04-10T01:52:16.307Z,19.33
2018-04-10T01:53:18.783Z,18.40
2018-04-10T01:54:21.255Z,19.90
2018-04-10T01:55:23.727Z,19.80
2018-04-10T01:56:26.963Z,19.33
2018-04-10T01:57:29.451Z,19.45
2018-04-10T01:58:31.923Z,19.12
2018-04-10T01:59:34.395Z,19.62
2018-04-10T02:00:36.884Z,19.65
2018-04-10T02:01:40.117Z,19.83
2018-04-10T02:02:42.623Z,19.17
2018-04-10T02:03:45.118Z,18.73
2018-04-10T02:04:47.587Z,20.62
2018-04-10T02:05:50.056Z,19.83
2018-04-10T02:06:52.519Z,20.42
2018-04-10T02:07:55.002Z,20.70
2018-04-10T02:08:57.475Z,19.70
2018-04-10T02:09:59.950Z,18.85
2018-04-10T02:11:03.273Z,19.67
2018-04-10T02:12:05.743Z,19.67
2018-04-10T02:13:08.235Z,19.35
2018-04-10T02:14:10.707Z,19.55
2018-04-10T02:15:13.179Z,20.12
2018-04-10T02:16:15.659Z,18.55
2018-04-10T02:17:18.127Z,19.67
2018-04-10T02:18:20.898Z,20.35
2018-04-10T02:19:23.375Z,19.27
2018-04-10T02:20:26.606Z,20.60
2018-04-10T02:21:29.071Z,20.48
2018-04-10T02:22:31.567Z,19.65
2018-04-10T02:23:34.072Z,20.37
2018-04-10T02:24:36.543Z,19.10
2018-04-10T02:25:39.019Z,19.92
2018-04-10T02:26:41.496Z,19.92
2018-04-10T02:27:43.965Z,19.70
2018-04-10T02:28:46.447Z,19.67
2018-04-10T02:29:48.927Z,20.02
2018-04-10T02:30:51.431Z,19.02
2018-04-10T02:31:53.935Z,19.83
2018-04-10T02:32:56.475Z,18.83
2018-04-10T02:33:58.960Z,19.67
2018-04-10T02:35:01.434Z,19.67
2018-04-10T02:36:03.907Z,19.40
2018-04-10T02:37:06.381Z,19.60
2018-04-10T02:38:08.849Z,19.00
2018-04-10T02:39:12.104Z,18.65
2018-04-10T02:40:14.574Z,18.92
2018-04-10T02:41:17.045Z,19.12
2018-04-10T02:42:19.515Z,20.42
2018-04-10T02:43:23.487Z,18.60
2018-04-10T02:44:26.039Z,19.35
2018-04-10T02:45:28.525Z,17.98
2018-04-10T02:46:31.005Z,18.67
2018-04-10T02:47:33.486Z,19.52
2018-04-10T02:48:36.027Z,19.10
2018-04-10T02:49:38.515Z,18.85
2018-04-10T02:50:41.748Z,19.42
2018-04-10T02:51:44.246Z,18.65
2018-04-10T02:52:46.727Z,18.75
2018-04-10T02:53:49.967Z,19.15
2018-04-10T02:54:52.455Z,19.33
2018-04-10T02:55:54.939Z,18.77
2018-04-10T02:56:58.182Z,17.95
2018-04-10T02:58:00.726Z,19.20
2018-04-10T02:59:03.195Z,18.70
2018-04-10T03:00:05.687Z,19.30
2018-04-10T03:01:08.155Z,18.30
2018-04-10T03:02:10.676Z,18.95
2018-04-10T03:03:13.158Z,19.27
2018-04-10T03:04:15.623Z,19.48
2018-04-10T03:05:18.128Z,18.33
2018-04-10T03:06:20.600Z,19.55
2018-04-10T03:07:23.074Z,18.55
2018-04-10T03:08:25.558Z,18.50
2018-04-10T03:09:28.791Z,18.58
2018-04-10T03:10:31.299Z,18.05
2018-04-10T03:11:34.537Z,19.10
2018-04-10T03:12:37.003Z,19.17
2018-04-10T03:13:39.471Z,17.50
2018-04-10T03:14:41.940Z,19.12
2018-04-10T03:15:44.435Z,18.73
2018-04-10T03:16:47.671Z,19.45
2018-04-10T03:17:50.149Z,19.20
2018-04-10T03:18:52.620Z,18.02
2018-04-10T03:19:55.089Z,18.87
2018-04-10T03:20:57.579Z,18.20
2018-04-10T03:22:00.843Z,18.25
2018-04-10T03:23:04.108Z,18.08
2018-04-10T03:24:06.705Z,18.40
2018-04-10T03:25:09.959Z,19.25
2018-04-10T03:26:12.449Z,18.20
2018-04-10T03:27:15.698Z,18.20
2018-04-10T03:28:18.163Z,18.20
2018-04-10T03:29:20.639Z,18.92
2018-04-10T03:30:23.107Z,18.27
2018-04-10T03:31:25.879Z,18.70
2018-04-10T03:32:28.354Z,19.27
2018-04-10T03:33:31.600Z,18.05
2018-04-10T03:34:34.063Z,18.55
2018-04-10T03:35:36.547Z,18.33
2018-04-10T03:36:39.053Z,17.73
2018-04-10T03:37:42.287Z,18.62
2018-04-10T03:38:44.751Z,18.37
2018-04-10T03:39:47.227Z,18.62
2018-04-10T03:40:49.703Z,18.35
2018-04-10T03:41:52.470Z,19.37
2018-04-10T03:42:54.976Z,18.55
2018-04-10T03:43:57.451Z,18.58
2018-04-10T03:44:59.931Z,18.00
2018-04-10T03:46:02.399Z,17.58
2018-04-10T03:47:04.898Z,18.00
2018-04-10T03:48:07.466Z,18.80
2018-04-10T03:49:09.935Z,16.98
2018-04-10T03:50:12.420Z,18.80
2018-04-10T03:51:14.903Z,18.92
2018-04-10T03:52:17.387Z,18.70
2018-04-10T03:53:19.859Z,18.30
2018-04-10T03:54:22.328Z,18.65
2018-04-10T03:55:25.160Z,17.85
2018-04-10T03:56:27.625Z,17.98
2018-04-10T03:57:30.118Z,18.80
2018-04-10T03:58:32.603Z,18.90
2018-04-10T03:59:35.075Z,19.12
2018-04-10T04:00:37.553Z,18.48
2018-04-10T04:01:40.792Z,18.67
2018-04-10T04:02:43.603Z,19.23
2018-04-10T04:03:46.884Z,18.00
2018-04-10T04:04:49.392Z,17.98
2018-04-10T04:05:51.867Z,18.20
2018-04-10T04:06:54.343Z,18.15
2018-04-10T04:07:56.852Z,18.05
2018-04-10T04:09:00.134Z,18.65
2018-04-10T04:10:02.647Z,18.00
2018-04-10T04:11:05.159Z,16.80
2018-04-10T04:12:08.407Z,17.62
2018-04-10T04:13:10.887Z,17.62
2018-04-10T04:14:13.383Z,16.20
2018-04-10T04:15:16.624Z,18.20
2018-04-10T04:16:30.910Z,16.83
2018-04-10T04:17:34.139Z,16.15
2018-04-10T04:20:24.506Z,16.58
2018-04-10T04:21:48.595Z,17.10
2018-04-10T04:22:51.070Z,16.15
2018-04-10T04:23:53.552Z,16.48
2018-04-10T04:24:56.019Z,16.95
2018-04-10T04:25:58.492Z,17.50
2018-04-10T04:27:01.127Z,18.00
2018-04-10T04:28:03.607Z,18.35
2018-04-10T04:29:06.131Z,17.98
2018-04-10T04:30:08.599Z,16.37
2018-04-10T04:31:11.076Z,17.58
2018-04-10T04:32:13.547Z,16.77
2018-04-10T04:33:16.015Z,17.27
2018-04-10T04:34:18.516Z,18.08
2018-04-10T04:35:20.979Z,18.77
2018-04-10T04:36:23.505Z,17.83
2018-04-10T04:37:25.971Z,19.48
2018-04-10T04:38:28.451Z,18.20
2018-04-10T04:39:30.943Z,19.52
2018-04-10T04:40:34.179Z,17.27
2018-04-10T04:41:36.651Z,17.90
2018-04-10T04:42:39.119Z,18.20
2018-04-10T04:43:41.597Z,16.45
2018-04-10T04:44:44.088Z,17.02
2018-04-10T04:45:46.555Z,17.20
2018-04-10T04:46:49.799Z,17.92
2018-04-10T04:47:52.291Z,17.23
2018-04-10T04:48:54.760Z,17.12
2018-04-10T04:49:57.243Z,18.27
2018-04-10T04:51:00.483Z,18.05
2018-04-10T04:52:02.958Z,18.27
2018-04-10T04:53:05.436Z,17.40
2018-04-10T04:54:08.679Z,17.23
2018-04-10T04:55:11.167Z,16.75
2018-04-10T04:56:13.639Z,17.92
2018-04-10T04:57:16.875Z,16.48
2018-04-10T04:58:19.347Z,17.15
2018-04-10T04:59:21.832Z,17.83
2018-04-10T05:00:24.315Z,16.65
2018-04-10T05:01:26.791Z,17.35
2018-04-10T05:02:30.030Z,15.70
2018-04-10T05:03:32.503Z,18.75
2018-04-10T05:04:34.975Z,17.65
2018-04-10T05:05:37.463Z,21.67
2018-04-10T05:06:39.931Z,20.75
2018-04-10T05:07:42.403Z,21.98
2018-04-10T05:08:45.660Z,20.23
2018-04-10T05:09:48.135Z,18.73
2018-04-10T05:10:50.651Z,19.20
2018-04-10T05:11:53.164Z,17.10
2018-04-10T05:12:55.631Z,16.60
2018-04-10T05:13:58.103Z,18.05
2018-04-10T05:15:01.335Z,16.87
2018-04-10T05:16:03.824Z,17.25
2018-04-10T05:17:06.303Z,18.95
2018-04-10T05:18:08.771Z,35.33
2018-04-10T05:19:11.243Z,26.52
2018-04-10T05:20:14.487Z,22.40
2018-04-10T05:21:16.983Z,20.70
2018-04-10T05:22:19.451Z,18.85
2018-04-10T05:23:21.923Z,18.55
2018-04-10T05:24:25.955Z,16.92
2018-04-10T05:25:29.212Z,16.45
2018-04-10T05:26:32.479Z,16.65
2018-04-10T05:27:34.947Z,16.45
2018-04-10T05:28:37.419Z,16.62
2018-04-10T05:29:40.659Z,15.75
2018-04-10T05:30:43.136Z,17.05
2018-04-10T05:31:45.705Z,15.95
2018-04-10T05:32:48.191Z,16.15
2018-04-10T05:33:51.451Z,16.58
2018-04-10T05:34:53.931Z,15.98
2018-04-10T05:35:56.403Z,16.00
2018-04-10T05:36:58.947Z,15.55
2018-04-10T05:38:01.415Z,16.27
2018-04-10T05:39:03.895Z,15.70
2018-04-10T05:40:06.367Z,17.20
2018-04-10T05:41:09.615Z,16.42
2018-04-10T05:42:12.107Z,16.65
2018-04-10T05:43:14.579Z,18.25
2018-04-10T05:44:17.831Z,15.55
2018-04-10T05:45:20.320Z,16.90
2018-04-10T05:46:22.787Z,16.17
2018-04-10T05:47:26.047Z,16.77
2018-04-10T05:48:28.645Z,17.30
2018-04-10T05:49:31.885Z,16.67
2018-04-10T05:50:34.351Z,16.98
2018-04-10T05:51:36.823Z,15.82
2018-04-10T05:52:39.313Z,16.02
2018-04-10T05:53:42.614Z,17.25
2018-04-10T05:54:45.855Z,16.95
2018-04-10T05:55:48.516Z,17.25
2018-04-10T05:56:50.998Z,15.73
2018-04-10T05:57:53.517Z,15.25
2018-04-10T05:58:56.044Z,15.88
2018-04-10T05:59:59.296Z,16.25
2018-04-10T06:01:08.087Z,16.40
2018-04-10T06:02:10.571Z,16.30
2018-04-10T06:03:13.114Z,16.15
2018-04-10T06:04:15.604Z,15.68
2018-04-10T06:05:18.087Z,16.67
2018-04-10T06:06:20.563Z,16.27
2018-04-10T06:07:23.031Z,16.77
2018-04-10T06:08:25.525Z,15.65
2018-04-10T06:09:28.023Z,16.00
2018-04-10T06:10:30.491Z,15.95
2018-04-10T06:11:32.977Z,15.15
2018-04-10T06:12:35.495Z,15.18
2018-04-10T06:13:38.023Z,15.88
2018-04-10T06:14:40.487Z,15.02
2018-04-10T06:15:43.727Z,15.32
2018-04-10T06:16:46.199Z,15.38
2018-04-10T06:17:48.675Z,14.32
2018-04-10T06:18:51.184Z,14.82
2018-04-10T06:19:53.652Z,14.52
2018-04-10T06:20:56.128Z,15.00
2018-04-10T06:21:58.762Z,14.68
2018-04-10T06:23:02.011Z,15.52
2018-04-10T06:24:04.787Z,15.43
2018-04-10T06:25:07.263Z,15.85
2018-04-10T06:26:09.751Z,15.63
2018-04-10T06:27:13.091Z,15.40
2018-04-10T06:28:15.601Z,15.30
2018-04-10T06:29:18.865Z,14.70
2018-04-10T06:30:21.339Z,14.32
2018-04-10T06:31:23.807Z,14.60
2018-04-10T06:32:27.114Z,14.90
2018-04-10T06:33:29.583Z,14.82
2018-04-10T06:34:32.103Z,15.25
2018-04-10T06:35:34.571Z,14.85
2018-04-10T06:36:37.811Z,14.63
2018-04-10T06:37:40.335Z,14.27
2018-04-10T06:38:43.575Z,14.20
2018-04-10T06:39:46.099Z,13.25
2018-04-10T06:40:49.379Z,14.90
2018-04-10T06:41:52.615Z,14.20
2018-04-10T06:42:55.124Z,14.15
2018-04-10T06:43:57.604Z,15.60
2018-04-10T06:45:00.102Z,15.38
2018-04-10T06:46:02.597Z,15.35
2018-04-10T06:47:05.068Z,14.95
2018-04-10T06:48:07.540Z,15.57
2018-04-10T06:49:10.771Z,15.38
2018-04-10T06:50:13.267Z,14.95
2018-04-10T06:51:15.763Z,14.40
2018-04-10T06:52:19.031Z,14.68
2018-04-10T06:53:22.267Z,14.73
2018-04-10T06:54:24.735Z,14.30
2018-04-10T06:55:27.237Z,13.10
2018-04-10T06:56:29.711Z,13.45
2018-04-10T06:57:32.951Z,14.32
2018-04-10T06:58:35.432Z,13.32
2018-04-10T06:59:37.968Z,14.02
2018-04-10T07:00:40.508Z,14.02
2018-04-10T07:01:42.988Z,13.70
2018-04-10T07:02:45.475Z,13.90
2018-04-10T07:03:47.955Z,15.00
2018-04-10T07:04:50.431Z,14.23
2018-04-10T07:05:52.933Z,13.25
2018-04-10T07:06:55.396Z,12.32
2018-04-10T07:07:57.887Z,14.80
2018-04-10T07:09:00.384Z,13.50
2018-04-10T07:10:02.855Z,13.05
2018-04-10T07:11:05.343Z,12.70
2018-04-10T07:12:08.607Z,12.82
2018-04-10T07:13:11.088Z,12.88
2018-04-10T07:14:14.375Z,12.37
2018-04-10T07:15:17.611Z,11.63
2018-04-10T07:16:20.121Z,12.57
2018-04-10T07:17:23.370Z,12.60
2018-04-10T07:18:25.923Z,12.48
2018-04-10T07:19:28.407Z,12.25
2018-04-10T07:20:30.879Z,11.48
2018-04-10T07:21:33.367Z,12.13
2018-04-10T07:22:36.603Z,12.35
2018-04-10T07:23:39.083Z,11.35
2018-04-10T07:24:41.570Z,11.93
2018-04-10T07:25:44.803Z,11.95
2018-04-10T07:26:47.307Z,11.12
2018-04-10T07:27:49.786Z,11.10
2018-04-10T07:28:53.027Z,10.23
2018-04-10T07:29:55.495Z,10.95
2018-04-10T07:32:23.564Z,10.68
2018-04-10T07:33:26.031Z,11.70
2018-04-10T07:34:28.535Z,10.73
2018-04-10T07:35:31.768Z,10.55
2018-04-10T07:36:34.248Z,10.77
2018-04-10T07:37:36.760Z,12.07
2018-04-10T07:38:39.228Z,11.35
2018-04-10T07:39:41.741Z,11.23
2018-04-10T07:40:44.208Z,10.88
2018-04-10T07:41:46.745Z,10.82
2018-04-10T07:42:49.991Z,10.13
2018-04-10T07:43:52.487Z,10.93
2018-04-10T07:44:54.957Z,10.93
2018-04-10T07:45:57.425Z,11.02
2018-04-10T07:46:59.907Z,9.63
2018-04-10T07:48:02.431Z,10.10
2018-04-10T07:49:04.896Z,9.60
2018-04-10T07:50:07.366Z,9.30
2018-04-10T07:51:09.832Z,9.30
2018-04-10T07:52:12.295Z,8.40
2018-04-10T07:53:14.779Z,9.65
2018-04-10T07:54:17.268Z,9.00
2018-04-10T07:55:19.747Z,9.27
2018-04-10T07:56:22.987Z,10.18
2018-04-10T07:57:25.504Z,9.52
2018-04-10T07:58:28.795Z,10.07
2018-04-10T07:59:32.031Z,9.50
2018-04-10T08:00:34.500Z,9.93
2018-04-10T08:01:36.961Z,9.88
2018-04-10T08:02:39.474Z,9.65
2018-04-10T08:03:41.948Z,9.70
2018-04-10T08:04:44.427Z,8.60
2018-04-10T08:05:46.899Z,8.82
2018-04-10T08:06:49.365Z,8.57
2018-04-10T08:07:51.831Z,9.68
2018-04-10T08:08:54.643Z,8.77
2018-04-10T08:09:57.111Z,9.48
2018-04-10T08:11:01.092Z,9.90
2018-04-10T08:12:03.627Z,8.85
2018-04-10T08:13:06.125Z,9.50
2018-04-10T08:14:08.651Z,9.10
2018-04-10T08:15:11.123Z,8.23
2018-04-10T08:16:13.625Z,8.43
2018-04-10T08:17:16.091Z,9.10
2018-04-10T08:18:18.565Z,8.93
2018-04-10T08:19:21.819Z,7.75
2018-04-10T08:20:24.281Z,8.05
2018-04-10T08:21:26.748Z,8.20
2018-04-10T08:22:29.237Z,8.32
2018-04-10T08:23:31.701Z,8.32
2018-04-10T08:24:34.186Z,8.48
2018-04-10T08:25:37.423Z,8.25
2018-04-10T08:26:39.886Z,8.38
2018-04-10T08:27:42.442Z,8.48
2018-04-10T08:28:44.916Z,8.82
2018-04-10T08:29:47.711Z,8.57
2018-04-10T08:30:50.188Z,8.13
2018-04-10T08:31:53.415Z,8.10
2018-04-10T08:32:55.883Z,8.82
2018-04-10T08:33:58.411Z,8.27
2018-04-10T08:35:02.232Z,10.55
2018-04-10T08:36:04.706Z,10.10
2018-04-10T08:37:07.247Z,9.23
2018-04-10T08:38:10.495Z,8.90
2018-04-10T08:39:12.963Z,8.52
2018-04-10T08:40:16.959Z,8.15
2018-04-10T08:41:19.475Z,8.07
2018-04-10T08:42:21.943Z,8.05
2018-04-10T08:43:24.511Z,6.97
2018-04-10T08:44:26.995Z,7.82
2018-04-10T08:45:29.656Z,7.82
2018-04-10T08:46:32.274Z,7.85
2018-04-10T08:47:35.507Z,7.15
2018-04-10T08:48:37.967Z,6.70
2018-04-10T08:49:40.456Z,6.40
2018-04-10T08:50:42.939Z,5.40
2018-04-10T08:51:46.179Z,5.65
2018-04-10T08:52:48.650Z,5.53
2018-04-10T08:53:51.131Z,5.75
2018-04-10T08:54:53.606Z,5.60
2018-04-10T08:55:56.087Z,5.35
2018-04-10T08:56:59.324Z,5.53
2018-04-10T08:58:01.788Z,6.18
2018-04-10T08:59:04.251Z,5.68
2018-04-10T09:00:06.707Z,5.62
2018-04-10T09:01:09.239Z,5.28
2018-04-10T09:02:12.517Z,5.55
2018-04-10T09:03:16.477Z,7.35
2018-04-10T09:04:18.939Z,6.60
2018-04-10T09:05:21.411Z,6.43
2018-04-10T09:06:23.895Z,6.43
2018-04-10T09:07:26.363Z,5.43
2018-04-10T09:08:28.828Z,5.00
2018-04-10T09:09:32.811Z,4.93
2018-04-10T09:10:35.430Z,5.68
2018-04-10T09:11:37.919Z,5.25
2018-04-10T09:12:40.376Z,4.15
2018-04-10T09:13:42.883Z,4.43
2018-04-10T09:14:45.343Z,5.07
2018-04-10T09:15:47.812Z,5.20
2018-04-10T09:16:50.300Z,5.75
2018-04-10T09:17:53.528Z,5.07
2018-04-10T09:18:55.983Z,5.25
2018-04-10T09:19:58.464Z,5.03
2018-04-10T09:21:00.976Z,5.22
2018-04-10T09:22:04.221Z,4.00
2018-04-10T09:23:06.687Z,3.62
2018-04-10T09:24:09.150Z,3.90
2018-04-10T09:25:11.670Z,3.55
2018-04-10T09:26:14.136Z,3.60
2018-04-10T09:27:16.755Z,3.95
2018-04-10T09:28:19.300Z,4.05
2018-04-10T09:29:21.769Z,3.47
2018-04-10T09:30:24.228Z,3.85
2018-04-10T09:31:26.927Z,4.00
2018-04-10T09:32:30.194Z,3.58
2018-04-10T09:33:32.714Z,4.10
2018-04-10T09:34:35.236Z,3.70
2018-04-10T09:35:37.800Z,3.83
2018-04-10T09:36:40.264Z,3.62
2018-04-10T09:37:42.807Z,4.00
2018-04-10T09:38:45.276Z,3.62
2018-04-10T09:39:47.785Z,3.10
2018-04-10T09:40:50.335Z,3.17
2018-04-10T09:41:53.575Z,3.40
2018-04-10T09:42:56.108Z,3.47
2018-04-10T09:43:59.331Z,3.55
2018-04-10T09:45:01.818Z,3.37
2018-04-10T09:46:04.286Z,3.90
2018-04-10T09:47:06.751Z,3.17
2018-04-10T09:48:09.448Z,3.00
2018-04-10T09:49:12.675Z,3.15
2018-04-10T09:50:15.158Z,3.45
2018-04-10T09:51:17.623Z,2.90
2018-04-10T09:52:20.089Z,3.28
2018-04-10T09:53:22.569Z,3.58
2018-04-10T09:54:25.037Z,3.53
2018-04-10T09:55:28.271Z,3.30
2018-04-10T09:56:30.784Z,3.10
2018-04-10T09:57:34.019Z,3.25
2018-04-10T09:58:36.535Z,3.00
2018-04-10T09:59:39.767Z,3.22
2018-04-10T10:00:42.303Z,3.30
2018-04-10T10:01:45.532Z,2.67
2018-04-10T10:02:48.003Z,2.90
2018-04-10T10:03:50.482Z,2.30
2018-04-10T10:04:53.743Z,2.35
2018-04-10T10:05:56.207Z,2.50
2018-04-10T10:06:58.674Z,2.22
2018-04-10T10:08:01.143Z,2.78
2018-04-10T10:09:03.679Z,2.10
2018-04-10T10:10:06.191Z,2.72
2018-04-10T10:11:08.652Z,2.53
2018-04-10T10:12:11.123Z,2.40
2018-04-10T10:13:14.359Z,2.28
2018-04-10T10:14:16.885Z,2.08
2018-04-10T10:15:20.115Z,2.20
2018-04-10T10:16:22.580Z,2.50
2018-04-10T10:17:25.061Z,3.40
2018-04-10T10:18:27.527Z,2.75
2018-04-10T10:19:30.011Z,2.90
2018-04-10T10:20:32.483Z,4.00
2018-04-10T10:21:35.736Z,3.37
2018-04-10T10:22:38.204Z,3.20
2018-04-10T10:23:40.664Z,2.85
2018-04-10T10:24:43.303Z,2.70
2018-04-10T10:25:45.771Z,2.60
2018-04-10T10:26:48.255Z,3.10
2018-04-10T10:27:50.728Z,2.80
2018-04-10T10:28:53.211Z,2.83
2018-04-10T10:29:55.687Z,3.15
2018-04-10T10:30:58.925Z,3.08
2018-04-10T10:32:01.400Z,2.87
2018-04-10T10:33:03.925Z,2.95
2018-04-10T10:34:06.395Z,3.17
2018-04-10T10:35:08.879Z,2.80
2018-04-10T10:36:11.343Z,3.47
2018-04-10T10:37:13.824Z,3.17
2018-04-10T10:38:16.339Z,2.70
2018-04-10T10:39:19.575Z,2.80
2018-04-10T10:40:22.055Z,2.90
2018-04-10T10:41:24.517Z,3.00
2018-04-10T10:42:26.984Z,2.60
2018-04-10T10:43:29.443Z,2.58
2018-04-10T10:44:31.908Z,2.58
2018-04-10T10:45:34.432Z,3.00
2018-04-10T10:46:36.891Z,2.70
2018-04-10T10:47:39.376Z,2.80
2018-04-10T10:48:41.844Z,6.72
2018-04-10T10:49:44.311Z,7.55
2018-04-10T10:50:46.795Z,6.18
2018-04-10T10:51:49.265Z,3.92
2018-04-10T10:52:51.731Z,3.78
2018-04-10T10:53:54.200Z,3.10
2018-04-10T10:54:57.438Z,2.80
2018-04-10T10:55:59.911Z,2.65
2018-04-10T10:57:02.376Z,2.50
2018-04-10T10:58:04.887Z,2.97
2018-04-10T10:59:08.163Z,2.20
2018-04-10T11:00:11.483Z,2.70
2018-04-10T11:01:13.979Z,2.50
2018-04-10T11:02:16.440Z,2.85
2018-04-10T11:03:18.943Z,2.42
2018-04-10T11:04:21.413Z,2.33
2018-04-10T11:05:24.686Z,2.62
2018-04-10T11:06:28.735Z,2.45
2018-04-10T11:07:31.935Z,3.10
2018-04-10T11:08:34.399Z,2.72
2018-04-10T11:09:37.013Z,2.53
2018-04-10T11:10:40.251Z,2.50
2018-04-10T11:11:42.758Z,2.60
2018-04-10T11:12:45.991Z,2.55
2018-04-10T11:13:48.451Z,2.30
2018-04-10T11:14:50.924Z,2.58
2018-04-10T11:15:53.391Z,2.53
2018-04-10T11:16:55.879Z,2.65
2018-04-10T11:17:58.343Z,2.60
2018-04-10T11:19:00.808Z,2.37
2018-04-10T11:20:03.272Z,2.53
2018-04-10T11:21:05.751Z,3.70
2018-04-10T11:22:09.000Z,2.40
2018-04-10T11:23:11.487Z,2.45
2018-04-10T11:24:13.951Z,2.47
2018-04-10T11:25:16.415Z,2.70
2018-04-10T11:26:21.104Z,2.62
2018-04-10T11:27:23.596Z,3.05
2018-04-10T11:28:26.879Z,2.90
2018-04-10T11:29:30.144Z,3.67
2018-04-10T11:30:32.669Z,3.15
2018-04-10T11:31:36.913Z,3.17
2018-04-10T11:32:39.399Z,3.55
2018-04-10T11:33:41.873Z,3.90
2018-04-10T11:34:44.897Z,3.42
2018-04-10T11:35:47.427Z,3.87
2018-04-10T11:36:50.667Z,3.53
2018-04-10T11:37:53.175Z,3.15
2018-04-10T11:38:56.507Z,3.30
2018-04-10T11:39:59.035Z,3.40
2018-04-10T11:41:02.287Z,3.28
2018-04-10T11:42:04.775Z,3.40
2018-04-10T11:43:08.031Z,3.37
2018-04-10T11:44:10.543Z,2.95
2018-04-10T11:45:13.005Z,3.12
2018-04-10T11:46:15.517Z,2.90
2018-04-10T11:47:18.036Z,3.75
2018-04-10T11:48:20.539Z,2.33
2018-04-10T11:49:23.011Z,2.70
2018-04-10T11:50:25.488Z,2.62
2018-04-10T11:51:27.956Z,2.90
2018-04-10T11:52:30.424Z,2.67
2018-04-10T11:53:32.911Z,2.70
2018-04-10T11:54:36.168Z,3.12
2018-04-10T11:55:38.623Z,2.92
2018-04-10T11:56:41.991Z,3.03
2018-04-10T11:57:44.459Z,2.67
2018-04-10T11:58:46.947Z,2.90
2018-04-10T11:59:49.443Z,3.05
2018-04-10T12:00:51.910Z,2.87
2018-04-10T12:01:54.367Z,3.42
2018-04-10T12:02:57.595Z,3.15
2018-04-10T12:04:00.100Z,3.10
2018-04-10T12:05:03.510Z,2.90
2018-04-10T12:06:06.007Z,3.30
2018-04-10T12:07:08.551Z,2.72
2018-04-10T12:08:11.035Z,2.50
2018-04-10T12:09:13.519Z,3.03
2018-04-10T12:10:15.980Z,2.50
2018-04-10T12:11:18.443Z,2.70
2018-04-10T12:12:20.906Z,2.72
2018-04-10T12:13:23.391Z,2.62
2018-04-10T12:14:25.886Z,2.78
2018-04-10T12:15:28.351Z,2.92
2018-04-10T12:16:30.875Z,2.87
2018-04-10T12:17:33.339Z,2.80
2018-04-10T12:18:35.806Z,2.70
2018-04-10T12:19:38.291Z,2.83
2018-04-10T12:20:41.592Z,2.97
2018-04-10T12:21:44.824Z,2.55
2018-04-10T12:22:47.335Z,2.42
2018-04-10T12:23:50.567Z,2.58
2018-04-10T12:24:53.052Z,2.50
2018-04-10T12:25:57.329Z,2.40
2018-04-10T12:26:59.794Z,2.70
2018-04-10T12:28:02.263Z,2.90
2018-04-10T12:29:04.880Z,2.72
2018-04-10T12:30:07.465Z,2.53
2018-04-10T12:31:09.925Z,2.85
2018-04-10T12:32:12.602Z,2.78
2018-04-10T12:33:15.073Z,2.80
2018-04-10T12:34:17.582Z,3.00
2018-04-10T12:35:20.860Z,3.03
2018-04-10T12:36:23.334Z,2.50
2018-04-10T12:37:25.799Z,2.62
2018-04-10T12:38:29.841Z,2.20
2018-04-10T12:39:32.308Z,2.62
2018-04-10T12:40:34.819Z,2.65
2018-04-10T12:41:37.387Z,2.33
2018-04-10T12:42:39.860Z,2.05
2018-04-10T12:43:43.845Z,2.28
2018-04-10T12:44:46.313Z,2.40
2018-04-10T12:45:48.812Z,2.28
2018-04-10T12:46:52.051Z,2.50
2018-04-10T12:47:54.522Z,2.08
2018-04-10T12:48:56.996Z,2.70
2018-04-10T12:50:00.069Z,2.60
2018-04-10T12:51:02.877Z,2.47
2018-04-10T12:52:06.107Z,2.40
2018-04-10T12:53:08.579Z,2.70
2018-04-10T12:54:11.047Z,2.15
2018-04-10T12:55:13.524Z,2.62
2018-04-10T12:56:16.778Z,2.50
2018-04-10T12:57:19.247Z,2.50
2018-04-10T12:58:21.750Z,2.62
2018-04-10T12:59:24.991Z,2.60
2018-04-10T13:00:27.491Z,2.20
2018-04-10T13:01:30.739Z,2.30
2018-04-10T13:02:33.747Z,1.80
2018-04-10T13:03:37.727Z,2.10
2018-04-10T13:04:40.195Z,2.92
2018-04-10T13:05:42.864Z,1.90
2018-04-10T13:06:45.647Z,2.20
2018-04-10T13:07:49.627Z,2.00
2018-04-10T13:08:52.105Z,2.00
2018-04-10T13:09:54.575Z,1.92
2018-04-10T13:10:57.038Z,1.85
2018-04-10T13:12:01.044Z,1.98
2018-04-10T13:13:04.340Z,3.58
2018-04-10T13:14:07.567Z,3.67
2018-04-10T13:15:10.035Z,2.05
2018-04-10T13:16:12.592Z,2.20
2018-04-10T13:17:15.103Z,2.15
2018-04-10T13:18:18.340Z,1.98
2018-04-10T13:19:20.816Z,1.80
2018-04-10T13:20:23.284Z,2.10
2018-04-10T13:21:25.755Z,1.83
2018-04-10T13:22:28.244Z,2.20
2018-04-10T13:23:32.227Z,2.15
2018-04-10T13:24:34.691Z,2.10
2018-04-10T13:25:37.159Z,2.00
2018-04-10T13:26:39.643Z,1.83
2018-04-10T13:27:42.249Z,2.08
2018-04-10T13:28:44.720Z,2.20
2018-04-10T13:29:47.187Z,2.17
2018-04-10T13:30:49.651Z,2.30
2018-04-10T13:31:52.123Z,2.45
2018-04-10T13:32:54.604Z,2.03
2018-04-10T13:33:57.091Z,2.20
2018-04-10T13:34:59.555Z,2.03
2018-04-10T13:36:04.406Z,1.90
2018-04-10T13:37:07.667Z,2.00
2018-04-10T13:38:10.616Z,2.20
2018-04-10T13:39:13.099Z,2.50
2018-04-10T13:40:16.334Z,1.98
2018-04-10T13:41:18.812Z,1.85
2018-04-10T13:42:21.300Z,2.50